EDT,Max TemperatureF,Mean TemperatureF,Min TemperatureF,Max Dew PointF,MeanDew PointF,Min DewpointF,Max Humidity, Mean Humidity, Min Humidity, Max Sea Level PressureIn, Mean Sea Level PressureIn, Min Sea Level PressureIn, Max VisibilityMiles, Mean VisibilityMiles, Min VisibilityMiles, Max Wind SpeedMPH, Mean Wind SpeedMPH, Max Gust SpeedMPH,PrecipitationIn, CloudCover, Events, WindDirDegrees
2012-10-1,66,50,35,52,45,34,100,82,52,29.96,29.89,29.83,10,9,0,15,5,18,0.00,0,Fog,212
2012-10-2,64,53,42,54,50,43,100,86,59,30.00,29.92,29.86,10,8,0,8,3,,0.00,7,Fog,335
2012-10-3,69,53,37,57,47,36,100,82,46,30.03,30.00,29.98,10,6,0,8,2,,0.00,3,Fog,157
2012-10-4,66,56,46,59,53,46,100,89,64,30.01,29.91,29.80,10,6,0,17,4,25,0.00,5,Fog,187
2012-10-5,51,44,37,48,32,28,94,64,50,29.90,29.87,29.82,10,10,10,18,9,23,0.00,5,,238
2012-10-6,44,37,30,37,33,28,100,82,53,30.10,29.93,29.79,10,9,1,18,11,30,0.00,6,Rain-Snow,281
2012-10-7,48,39,30,37,30,23,100,75,37,30.09,30.04,29.98,10,10,4,15,5,20,0.00,5,Snow,231
2012-10-8,55,42,30,45,32,23,87,62,47,29.99,29.93,29.83,10,10,10,26,11,37,0.00,3,Rain,196
2012-10-9,53,46,39,48,45,37,100,90,67,29.82,29.73,29.64,10,8,2,22,15,34,0.00,7,Rain,200
2012-10-10,41,37,33,37,35,30,100,92,81,30.01,29.82,29.69,10,8,1,20,11,29,0.00,7,Rain-Snow,256
2012-10-11,46,38,30,39,33,28,100,87,57,30.18,29.97,29.83,10,8,2,25,5,37,0.00,6,Rain-Snow,271
2012-10-12,46,36,26,36,30,25,100,76,49,30.41,30.33,30.19,10,10,3,12,6,18,0.00,3,Snow,235
2012-10-13,46,39,32,43,37,28,100,86,71,30.28,30.01,29.76,10,7,1,16,5,26,0.00,7,Rain,149
2012-10-14,48,45,42,46,44,41,100,96,93,29.79,29.62,29.43,10,5,0,15,5,24,0.00,8,Fog-Rain,6
2012-10-15,42,40,39,41,37,34,93,85,70,29.92,29.74,29.47,10,9,5,15,11,25,0.00,8,Rain,317
2012-10-16,50,38,28,46,39,28,100,93,87,29.92,29.79,29.61,10,10,7,15,6,21,0.00,5,Rain,172
2012-10-17,64,54,44,54,49,43,93,83,64,29.62,29.50,29.42,10,10,10,18,8,25,0.00,3,,133
2012-10-18,60,52,44,55,50,43,100,95,77,29.59,29.39,29.28,10,9,4,16,10,29,0.00,8,Rain,130
2012-10-19,51,45,39,48,43,39,100,93,82,29.65,29.62,29.59,10,10,3,22,6,26,0.00,6,Rain,87
2012-10-20,57,48,39,46,42,37,100,81,48,29.82,29.71,29.62,10,10,2,9,3,18,0.00,3,Rain,316
2012-10-21,59,47,35,46,41,34,100,83,48,30.02,29.95,29.83,10,10,4,13,5,17,0.00,0,,231
2012-10-22,62,53,44,52,47,43,100,87,63,30.06,30.03,30.00,10,7,0,7,2,,0.00,2,Fog,19
2012-10-23,59,52,46,48,46,45,100,82,63,30.06,30.03,30.00,10,10,4,21,9,28,0.00,7,,85
2012-10-24,55,52,48,55,51,46,100,96,87,30.01,29.94,29.84,10,4,0,18,11,28,0.00,8,Fog,121
2012-10-25,66,55,44,63,58,43,100,90,83,29.84,29.67,29.54,10,9,2,29,12,43,0.00,7,Rain,183
2012-10-26,46,40,33,43,33,27,93,76,53,30.28,30.11,29.76,10,9,2,18,11,30,0.00,6,Rain,264
2012-10-27,44,35,26,34,27,21,100,75,39,30.33,30.29,30.25,10,10,10,13,5,16,0.00,5,,265
2012-10-28,44,36,28,28,27,25,93,72,46,30.36,30.34,30.32,10,10,10,12,4,17,0.00,3,,327
2012-10-29,42,36,30,28,25,19,87,66,45,30.34,30.28,30.13,10,10,10,20,8,29,0.00,0,,350
2012-10-30,37,35,33,34,30,23,100,83,60,30.12,29.90,29.76,10,6,2,24,16,34,0.00,6,Snow,352
2012-10-31,37,35,33,36,34,32,100,95,87,29.75,29.70,29.67,10,5,2,17,11,26,0.00,8,Rain-Snow,337